EYPA/PLQ METAR and TAF weather

Enter ICAO airport designator
Station Type Date Time Source
EYPA METAR 2020/04/06 17:50 UTC NOAA

EYPA 061750Z AUTO 14006KT 9999 NCD 12/M03 Q1029


Station Type Date Time Source
EYPA Decoded METAR 2020/04/06 17:50 UTC NOAA

Palanga Intl., Lithuania (EYPA) 55-55-12N 021-03E
Apr 06, 2020 - 01:50 PM EDT / 2020.04.06 1750 UTC
Wind: from the SE (140 degrees) at 7 MPH (6 KT):0
Visibility: greater than 7 mile(s):0
Temperature: 53 F (12 C)
Dew Point: 26 F (-3 C)
Relative Humidity: 34%
Pressure (altimeter): 30.39 in. Hg (1029 hPa)
ob: EYPA 061750Z AUTO 14006KT 9999 NCD 12/M03 Q1029
cycle: 18

Station Type Date Time Source
EYPA TAF 2020/04/06 18:03 UTC NOAA

TAF EYPA 061700Z 0618/0718 18010KT 9000 NSC

Example: see airport list